Terminal Aerodrome Forecast
Issued by NWS

Home | Current Version | Previous Version | Text Only | Print | Product List | Glossary Off
Versions: 1 2 3 4 5 6 7 8 9 10 11 12 13 14 15 16 17

191
FTUS43 KICT 152329
TAFHUT
TAF
KHUT 152329Z 1600/1624 02005KT P6SM SCT250
     FM160500 VRB03KT P6SM SCT250
     FM161300 14008KT P6SM SKC
     FM162000 16014G20KT P6SM FEW040=

USA.gov is the U.S. government's official web portal to all federal, state and local government web resources and services.